sensor_id;sensor_type;location;lat;lon;timestamp;pressure;altitude;pressure_sealevel;temperature;humidity
40592;BME280;26301;42.832;23.918;2023-09-07T00:00:10;93774.22;;;16.14;99.27
40592;BME280;26301;42.832;23.918;2023-09-07T00:02:36;93755.94;;;16.04;100.00
40592;BME280;26301;42.832;23.918;2023-09-07T00:05:02;93767.44;;;16.13;100.00
40592;BME280;26301;42.832;23.918;2023-09-07T00:07:29;93775.00;;;16.14;100.00
40592;BME280;26301;42.832;23.918;2023-09-07T00:09:55;93770.59;;;16.20;98.77
40592;BME280;26301;42.832;23.918;2023-09-07T00:12:21;93771.34;;;16.15;97.06
40592;BME280;26301;42.832;23.918;2023-09-07T00:14:46;93769.84;;;16.25;96.30
40592;BME280;26301;42.832;23.918;2023-09-07T00:17:12;93768.22;;;16.13;96.86
40592;BME280;26301;42.832;23.918;2023-09-07T00:19:38;93772.66;;;16.18;97.25
40592;BME280;26301;42.832;23.918;2023-09-07T00:22:04;93778.41;;;16.20;97.64
40592;BME280;26301;42.832;23.918;2023-09-07T00:24:31;93781.28;;;16.23;97.67
40592;BME280;26301;42.832;23.918;2023-09-07T00:26:59;93776.09;;;16.29;97.48
40592;BME280;26301;42.832;23.918;2023-09-07T00:29:25;93782.09;;;16.29;97.16
40592;BME280;26301;42.832;23.918;2023-09-07T00:31:54;93764.56;;;16.14;97.49
40592;BME280;26301;42.832;23.918;2023-09-07T00:34:20;93776.84;;;16.24;97.96
40592;BME280;26301;42.832;23.918;2023-09-07T00:36:45;93776.53;;;16.15;98.09
40592;BME280;26301;42.832;23.918;2023-09-07T00:39:11;93768.97;;;16.04;98.55
40592;BME280;26301;42.832;23.918;2023-09-07T00:41:38;93774.72;;;16.11;98.94
40592;BME280;26301;42.832;23.918;2023-09-07T00:44:03;93753.06;;;16.05;98.42
40592;BME280;26301;42.832;23.918;2023-09-07T00:46:29;93750.41;;;15.95;97.71
40592;BME280;26301;42.832;23.918;2023-09-07T00:48:56;93755.09;;;15.93;98.47
40592;BME280;26301;42.832;23.918;2023-09-07T00:51:22;93762.66;;;15.99;99.08
40592;BME280;26301;42.832;23.918;2023-09-07T00:53:49;93760.09;;;16.05;98.54
40592;BME280;26301;42.832;23.918;2023-09-07T00:56:15;93740.75;;;15.90;98.12
40592;BME280;26301;42.832;23.918;2023-09-07T00:58:42;93739.41;;;15.83;98.69
40592;BME280;26301;42.832;23.918;2023-09-07T01:01:08;93758.72;;;15.92;98.87
40592;BME280;26301;42.832;23.918;2023-09-07T01:03:35;93740.69;;;15.80;99.13
40592;BME280;26301;42.832;23.918;2023-09-07T01:06:16;93752.50;;;15.98;99.26
40592;BME280;26301;42.832;23.918;2023-09-07T01:09:10;93761.13;;;16.04;99.38
40592;BME280;26301;42.832;23.918;2023-09-07T01:11:50;93752.00;;;16.06;99.68
40592;BME280;26301;42.832;23.918;2023-09-07T01:17:36;93764.53;;;16.09;98.69
40592;BME280;26301;42.832;23.918;2023-09-07T01:20:16;93749.41;;;16.01;97.77
40592;BME280;26301;42.832;23.918;2023-09-07T01:22:45;93739.44;;;15.93;96.90
40592;BME280;26301;42.832;23.918;2023-09-07T01:25:37;93748.50;;;15.85;97.65
40592;BME280;26301;42.832;23.918;2023-09-07T01:28:11;93747.22;;;15.83;97.45
40592;BME280;26301;42.832;23.918;2023-09-07T01:30:48;93726.25;;;15.62;98.17
40592;BME280;26301;42.832;23.918;2023-09-07T01:33:33;93741.69;;;15.74;99.19
40592;BME280;26301;42.832;23.918;2023-09-07T01:36:29;93761.84;;;15.89;99.53
40592;BME280;26301;42.832;23.918;2023-09-07T01:39:23;93760.53;;;15.86;99.31
40592;BME280;26301;42.832;23.918;2023-09-07T01:41:54;93755.31;;;15.86;99.01
40592;BME280;26301;42.832;23.918;2023-09-07T01:44:38;93757.66;;;15.88;98.92
40592;BME280;26301;42.832;23.918;2023-09-07T01:47:06;93740.41;;;15.76;98.43
40592;BME280;26301;42.832;23.918;2023-09-07T01:49:35;93736.78;;;15.77;98.49
40592;BME280;26301;42.832;23.918;2023-09-07T01:52:02;93754.53;;;15.86;97.35
40592;BME280;26301;42.832;23.918;2023-09-07T01:54:35;93754.50;;;15.81;97.09
40592;BME280;26301;42.832;23.918;2023-09-07T01:57:04;93746.13;;;15.73;97.33
40592;BME280;26301;42.832;23.918;2023-09-07T01:59:36;93739.28;;;15.67;97.20
40592;BME280;26301;42.832;23.918;2023-09-07T02:02:05;93754.50;;;15.81;96.87
40592;BME280;26301;42.832;23.918;2023-09-07T02:04:39;93765.47;;;15.88;98.76
40592;BME280;26301;42.832;23.918;2023-09-07T02:07:12;93763.13;;;15.91;98.27
40592;BME280;26301;42.832;23.918;2023-09-07T02:09:41;93740.44;;;15.82;96.78
40592;BME280;26301;42.832;23.918;2023-09-07T02:12:15;93753.72;;;15.85;96.19
40592;BME280;26301;42.832;23.918;2023-09-07T02:14:51;93762.03;;;15.82;97.19
40592;BME280;26301;42.832;23.918;2023-09-07T02:17:20;93749.41;;;15.64;97.65
40592;BME280;26301;42.832;23.918;2023-09-07T02:19:47;93739.97;;;15.52;98.48
40592;BME280;26301;42.832;23.918;2023-09-07T02:22:13;93766.66;;;15.70;97.68
40592;BME280;26301;42.832;23.918;2023-09-07T02:24:38;93756.69;;;15.62;97.25
40592;BME280;26301;42.832;23.918;2023-09-07T02:27:04;93760.09;;;15.62;97.06
40592;BME280;26301;42.832;23.918;2023-09-07T02:29:35;93760.59;;;15.59;97.24
40592;BME280;26301;42.832;23.918;2023-09-07T02:32:04;93773.34;;;15.61;97.76
40592;BME280;26301;42.832;23.918;2023-09-07T02:34:30;93752.69;;;15.44;97.75
40592;BME280;26301;42.832;23.918;2023-09-07T02:37:02;93763.81;;;15.39;99.72
40592;BME280;26301;42.832;23.918;2023-09-07T02:39:50;93752.47;;;15.18;100.00
40592;BME280;26301;42.832;23.918;2023-09-07T02:42:23;93747.19;;;15.08;100.00
40592;BME280;26301;42.832;23.918;2023-09-07T02:45:11;93745.88;;;15.05;100.00
40592;BME280;26301;42.832;23.918;2023-09-07T02:47:50;93745.09;;;15.10;100.00
40592;BME280;26301;42.832;23.918;2023-09-07T02:50:17;93768.63;;;15.20;100.00
40592;BME280;26301;42.832;23.918;2023-09-07T02:55:35;93772.75;;;15.16;100.00
40592;BME280;26301;42.832;23.918;2023-09-07T02:58:04;93751.50;;;14.97;100.00
40592;BME280;26301;42.832;23.918;2023-09-07T03:00:30;93764.84;;;15.06;100.00
40592;BME280;26301;42.832;23.918;2023-09-07T03:03:01;93772.75;;;15.16;100.00
40592;BME280;26301;42.832;23.918;2023-09-07T03:05:28;93770.63;;;15.13;100.00
40592;BME280;26301;42.832;23.918;2023-09-07T03:08:02;93781.88;;;15.19;100.00
40592;BME280;26301;42.832;23.918;2023-09-07T03:10:40;93778.03;;;15.26;100.00
40592;BME280;26301;42.832;23.918;2023-09-07T03:13:12;93761.03;;;15.14;99.98
40592;BME280;26301;42.832;23.918;2023-09-07T03:15:38;93769.63;;;15.14;100.00
40592;BME280;26301;42.832;23.918;2023-09-07T03:18:09;93782.69;;;15.19;100.00
40592;BME280;26301;42.832;23.918;2023-09-07T03:20:37;93777.72;;;15.18;99.70
40592;BME280;26301;42.832;23.918;2023-09-07T03:23:06;93781.78;;;15.08;100.00
40592;BME280;26301;42.832;23.918;2023-09-07T03:25:32;93771.94;;;15.11;100.00
40592;BME280;26301;42.832;23.918;2023-09-07T03:28:04;93773.22;;;15.08;100.00
40592;BME280;26301;42.832;23.918;2023-09-07T03:30:36;93760.94;;;15.03;100.00
40592;BME280;26301;42.832;23.918;2023-09-07T03:33:02;93764.03;;;15.00;100.00
40592;BME280;26301;42.832;23.918;2023-09-07T03:35:56;93774.56;;;15.16;100.00
40592;BME280;26301;42.832;23.918;2023-09-07T03:38:30;93774.53;;;15.11;100.00
40592;BME280;26301;42.832;23.918;2023-09-07T03:40:56;93775.03;;;15.07;100.00
40592;BME280;26301;42.832;23.918;2023-09-07T03:43:25;93759.03;;;14.94;100.00
40592;BME280;26301;42.832;23.918;2023-09-07T03:45:57;93790.81;;;15.01;100.00
40592;BME280;26301;42.832;23.918;2023-09-07T03:48:23;93770.41;;;14.88;100.00
40592;BME280;26301;42.832;23.918;2023-09-07T03:50:50;93769.34;;;14.83;100.00
40592;BME280;26301;42.832;23.918;2023-09-07T03:53:22;93797.56;;;14.97;100.00
40592;BME280;26301;42.832;23.918;2023-09-07T03:55:53;93776.34;;;14.83;100.00
40592;BME280;26301;42.832;23.918;2023-09-07T03:58:22;93794.72;;;14.98;100.00
40592;BME280;26301;42.832;23.918;2023-09-07T04:00:58;93767.81;;;14.88;100.00
40592;BME280;26301;42.832;23.918;2023-09-07T04:03:30;93799.44;;;15.01;100.00
40592;BME280;26301;42.832;23.918;2023-09-07T04:05:57;93794.16;;;14.96;100.00
40592;BME280;26301;42.832;23.918;2023-09-07T04:08:39;93803.44;;;14.87;100.00
40592;BME280;26301;42.832;23.918;2023-09-07T04:11:17;93799.16;;;14.76;100.00
40592;BME280;26301;42.832;23.918;2023-09-07T04:13:49;93805.09;;;14.71;100.00
40592;BME280;26301;42.832;23.918;2023-09-07T04:16:33;93797.00;;;14.68;100.00
40592;BME280;26301;42.832;23.918;2023-09-07T04:19:12;93789.09;;;14.57;100.00
40592;BME280;26301;42.832;23.918;2023-09-07T04:21:58;93809.47;;;14.66;100.00
40592;BME280;26301;42.832;23.918;2023-09-07T04:24:29;93802.44;;;14.66;100.00
40592;BME280;26301;42.832;23.918;2023-09-07T04:27:04;93803.78;;;14.69;100.00
40592;BME280;26301;42.832;23.918;2023-09-07T04:29:36;93807.22;;;14.74;100.00
40592;BME280;26301;42.832;23.918;2023-09-07T04:32:06;93801.47;;;14.72;100.00
40592;BME280;26301;42.832;23.918;2023-09-07T04:34:34;93792.81;;;14.67;100.00
40592;BME280;26301;42.832;23.918;2023-09-07T04:37:09;93795.72;;;14.70;100.00
40592;BME280;26301;42.832;23.918;2023-09-07T04:39:34;93808.66;;;14.87;100.00
40592;BME280;26301;42.832;23.918;2023-09-07T04:42:06;93797.69;;;14.85;100.00
40592;BME280;26301;42.832;23.918;2023-09-07T04:44:40;93806.63;;;14.94;100.00
40592;BME280;26301;42.832;23.918;2023-09-07T04:47:08;93815.84;;;15.07;100.00
40592;BME280;26301;42.832;23.918;2023-09-07T04:49:40;93792.41;;;15.02;100.00
40592;BME280;26301;42.832;23.918;2023-09-07T04:52:11;93819.91;;;15.25;100.00
40592;BME280;26301;42.832;23.918;2023-09-07T04:54:37;93802.19;;;15.22;100.00
40592;BME280;26301;42.832;23.918;2023-09-07T04:57:05;93824.03;;;15.48;100.00
40592;BME280;26301;42.832;23.918;2023-09-07T04:59:31;93824.59;;;15.55;99.17
40592;BME280;26301;42.832;23.918;2023-09-07T05:02:03;93812.38;;;15.55;99.48
40592;BME280;26301;42.832;23.918;2023-09-07T05:04:29;93825.06;;;15.79;100.00
40592;BME280;26301;42.832;23.918;2023-09-07T05:06:57;93815.78;;;15.93;98.81
40592;BME280;26301;42.832;23.918;2023-09-07T05:09:28;93822.13;;;16.08;97.47
40592;BME280;26301;42.832;23.918;2023-09-07T05:11:57;93814.06;;;16.14;99.59
40592;BME280;26301;42.832;23.918;2023-09-07T05:14:25;93816.53;;;16.31;100.00
40592;BME280;26301;42.832;23.918;2023-09-07T05:16:51;93821.81;;;16.52;98.85
40592;BME280;26301;42.832;23.918;2023-09-07T05:19:18;93822.41;;;16.74;92.72
40592;BME280;26301;42.832;23.918;2023-09-07T05:21:44;93827.44;;;16.86;89.83
40592;BME280;26301;42.832;23.918;2023-09-07T05:24:13;93809.97;;;16.86;86.60
40592;BME280;26301;42.832;23.918;2023-09-07T05:26:39;93827.47;;;17.01;84.91
40592;BME280;26301;42.832;23.918;2023-09-07T05:29:05;93827.75;;;17.05;84.76
40592;BME280;26301;42.832;23.918;2023-09-07T05:31:31;93818.59;;;16.97;85.35
40592;BME280;26301;42.832;23.918;2023-09-07T05:33:57;93834.28;;;17.12;87.07
40592;BME280;26301;42.832;23.918;2023-09-07T05:36:22;93839.53;;;17.23;89.89
40592;BME280;26301;42.832;23.918;2023-09-07T05:38:48;93827.25;;;17.13;90.28
40592;BME280;26301;42.832;23.918;2023-09-07T05:41:14;93842.16;;;17.38;89.37
40592;BME280;26301;42.832;23.918;2023-09-07T05:43:39;93819.94;;;17.25;87.62
40592;BME280;26301;42.832;23.918;2023-09-07T05:46:05;93836.69;;;17.40;87.62
40592;BME280;26301;42.832;23.918;2023-09-07T05:48:33;93836.41;;;17.46;87.02
40592;BME280;26301;42.832;23.918;2023-09-07T05:50:59;93843.47;;;17.51;86.76
40592;BME280;26301;42.832;23.918;2023-09-07T05:53:25;93827.03;;;17.60;86.57
40592;BME280;26301;42.832;23.918;2023-09-07T05:55:52;93843.47;;;17.71;86.02
40592;BME280;26301;42.832;23.918;2023-09-07T05:58:17;93827.28;;;17.64;83.57
40592;BME280;26301;42.832;23.918;2023-09-07T06:00:43;93822.31;;;17.68;84.36
40592;BME280;26301;42.832;23.918;2023-09-07T06:03:10;93846.88;;;17.77;84.17
40592;BME280;26301;42.832;23.918;2023-09-07T06:05:37;93830.41;;;17.71;84.32
40592;BME280;26301;42.832;23.918;2023-09-07T06:08:04;93849.00;;;17.90;83.65
40592;BME280;26301;42.832;23.918;2023-09-07T06:10:31;93849.75;;;18.01;83.24
40592;BME280;26301;42.832;23.918;2023-09-07T06:12:57;93848.69;;;18.07;80.39
40592;BME280;26301;42.832;23.918;2023-09-07T06:15:24;93837.50;;;17.96;82.13
40592;BME280;26301;42.832;23.918;2023-09-07T06:17:49;93843.47;;;18.07;81.11
40592;BME280;26301;42.832;23.918;2023-09-07T06:20:15;93852.09;;;18.13;79.49
40592;BME280;26301;42.832;23.918;2023-09-07T06:22:41;93858.91;;;18.09;80.37
40592;BME280;26301;42.832;23.918;2023-09-07T06:25:07;93852.63;;;18.04;81.25
40592;BME280;26301;42.832;23.918;2023-09-07T06:27:33;93847.94;;;17.96;79.58
40592;BME280;26301;42.832;23.918;2023-09-07T06:29:59;93848.72;;;17.97;78.81
40592;BME280;26301;42.832;23.918;2023-09-07T06:32:30;93862.56;;;18.02;80.14
40592;BME280;26301;42.832;23.918;2023-09-07T06:34:58;93865.97;;;18.03;80.46
40592;BME280;26301;42.832;23.918;2023-09-07T06:37:24;93870.91;;;18.04;80.59
40592;BME280;26301;42.832;23.918;2023-09-07T06:39:50;93859.19;;;17.97;80.39
40592;BME280;26301;42.832;23.918;2023-09-07T06:42:16;93855.53;;;17.88;80.45
40592;BME280;26301;42.832;23.918;2023-09-07T06:44:42;93875.09;;;17.95;82.47
40592;BME280;26301;42.832;23.918;2023-09-07T06:47:08;93864.41;;;17.92;82.94
40592;BME280;26301;42.832;23.918;2023-09-07T06:49:34;93863.84;;;18.05;81.91
40592;BME280;26301;42.832;23.918;2023-09-07T06:52:00;93876.94;;;18.20;82.67
40592;BME280;26301;42.832;23.918;2023-09-07T06:54:28;93861.00;;;18.12;82.86
40592;BME280;26301;42.832;23.918;2023-09-07T06:56:54;93878.75;;;18.30;81.69
40592;BME280;26301;42.832;23.918;2023-09-07T06:59:19;93861.25;;;18.20;80.17
40592;BME280;26301;42.832;23.918;2023-09-07T07:01:45;93876.38;;;18.28;80.51
40592;BME280;26301;42.832;23.918;2023-09-07T07:04:11;93880.56;;;18.30;82.31
40592;BME280;26301;42.832;23.918;2023-09-07T07:06:36;93881.59;;;18.34;83.21
40592;BME280;26301;42.832;23.918;2023-09-07T07:09:03;93869.31;;;18.39;81.04
40592;BME280;26301;42.832;23.918;2023-09-07T07:11:29;93863.53;;;18.47;79.90
40592;BME280;26301;42.832;23.918;2023-09-07T07:13:55;93853.84;;;18.48;78.20
40592;BME280;26301;42.832;23.918;2023-09-07T07:16:21;93860.63;;;18.59;77.78
40592;BME280;26301;42.832;23.918;2023-09-07T07:18:46;93877.31;;;18.73;77.66
40592;BME280;26301;42.832;23.918;2023-09-07T07:21:12;93877.56;;;18.82;77.90
40592;BME280;26301;42.832;23.918;2023-09-07T07:23:40;93878.56;;;18.91;75.52
40592;BME280;26301;42.832;23.918;2023-09-07T07:26:07;93851.94;;;18.79;76.48
40592;BME280;26301;42.832;23.918;2023-09-07T07:28:34;93859.75;;;18.89;75.47
40592;BME280;26301;42.832;23.918;2023-09-07T07:31:09;93870.38;;;19.08;74.53
40592;BME280;26301;42.832;23.918;2023-09-07T07:33:42;93850.75;;;19.11;73.23
40592;BME280;26301;42.832;23.918;2023-09-07T07:36:07;93868.69;;;19.33;75.42
40592;BME280;26301;42.832;23.918;2023-09-07T07:38:34;93873.03;;;19.48;76.10
40592;BME280;26301;42.832;23.918;2023-09-07T07:41:00;93879.25;;;19.62;75.44
40592;BME280;26301;42.832;23.918;2023-09-07T07:43:27;93857.69;;;19.70;73.38
40592;BME280;26301;42.832;23.918;2023-09-07T07:45:53;93865.63;;;19.94;71.71
40592;BME280;26301;42.832;23.918;2023-09-07T07:48:19;93871.00;;;20.13;71.45
40592;BME280;26301;42.832;23.918;2023-09-07T07:50:45;93871.88;;;20.27;70.32
40592;BME280;26301;42.832;23.918;2023-09-07T07:53:11;93872.59;;;20.38;67.95
40592;BME280;26301;42.832;23.918;2023-09-07T07:55:38;93869.06;;;20.48;70.15
40592;BME280;26301;42.832;23.918;2023-09-07T07:58:11;93875.84;;;20.54;67.82
40592;BME280;26301;42.832;23.918;2023-09-07T08:00:42;93869.09;;;20.72;67.76
40592;BME280;26301;42.832;23.918;2023-09-07T08:03:18;93863.75;;;20.82;67.14
40592;BME280;26301;42.832;23.918;2023-09-07T08:05:45;93873.13;;;20.88;65.71
40592;BME280;26301;42.832;23.918;2023-09-07T08:08:10;93855.00;;;20.87;65.21
40592;BME280;26301;42.832;23.918;2023-09-07T08:10:36;93865.22;;;21.12;64.15
40592;BME280;26301;42.832;23.918;2023-09-07T08:13:03;93852.16;;;21.26;65.60
40592;BME280;26301;42.832;23.918;2023-09-07T08:15:29;93863.31;;;21.56;61.46
40592;BME280;26301;42.832;23.918;2023-09-07T08:17:57;93861.38;;;21.80;63.39
40592;BME280;26301;42.832;23.918;2023-09-07T08:20:26;93817.63;;;21.71;64.13
40592;BME280;26301;42.832;23.918;2023-09-07T08:22:52;93851.41;;;22.10;59.52
40592;BME280;26301;42.832;23.918;2023-09-07T08:28:20;93855.69;;;22.39;59.90
40592;BME280;26301;42.832;23.918;2023-09-07T08:30:56;93859.50;;;22.60;58.58
40592;BME280;26301;42.832;23.918;2023-09-07T08:33:24;93851.31;;;22.62;56.73
40592;BME280;26301;42.832;23.918;2023-09-07T08:35:55;93853.63;;;22.77;57.83
40592;BME280;26301;42.832;23.918;2023-09-07T08:38:27;93858.31;;;22.94;54.73
40592;BME280;26301;42.832;23.918;2023-09-07T08:40:54;93856.78;;;23.07;54.37
40592;BME280;26301;42.832;23.918;2023-09-07T08:43:21;93850.03;;;23.14;55.01
40592;BME280;26301;42.832;23.918;2023-09-07T08:45:51;93834.25;;;23.00;54.75
40592;BME280;26301;42.832;23.918;2023-09-07T08:48:23;93843.31;;;23.08;55.53
40592;BME280;26301;42.832;23.918;2023-09-07T08:50:54;93841.34;;;23.14;54.78
40592;BME280;26301;42.832;23.918;2023-09-07T08:53:27;93849.88;;;23.33;54.14
40592;BME280;26301;42.832;23.918;2023-09-07T08:55:55;93845.81;;;23.27;54.67
40592;BME280;26301;42.832;23.918;2023-09-07T08:58:21;93833.41;;;23.27;53.76
40592;BME280;26301;42.832;23.918;2023-09-07T09:00:47;93838.34;;;23.43;52.81
40592;BME280;26301;42.832;23.918;2023-09-07T09:03:12;93846.22;;;23.57;52.76
40592;BME280;26301;42.832;23.918;2023-09-07T09:05:39;93828.72;;;23.24;53.26
40592;BME280;26301;42.832;23.918;2023-09-07T09:08:06;93836.47;;;23.43;52.51
40592;BME280;26301;42.832;23.918;2023-09-07T09:10:32;93832.78;;;23.44;55.29
40592;BME280;26301;42.832;23.918;2023-09-07T09:13:00;93842.19;;;23.59;52.69
40592;BME280;26301;42.832;23.918;2023-09-07T09:15:33;93840.22;;;23.65;53.10
40592;BME280;26301;42.832;23.918;2023-09-07T09:18:15;93845.56;;;23.73;54.31
40592;BME280;26301;42.832;23.918;2023-09-07T09:20:44;93819.50;;;23.72;51.91
40592;BME280;26301;42.832;23.918;2023-09-07T09:23:13;93824.88;;;23.67;53.05
40592;BME280;26301;42.832;23.918;2023-09-07T09:25:43;93820.72;;;23.52;50.27
40592;BME280;26301;42.832;23.918;2023-09-07T09:28:09;93837.38;;;23.61;51.76
40592;BME280;26301;42.832;23.918;2023-09-07T09:30:38;93822.75;;;23.55;51.94
40592;BME280;26301;42.832;23.918;2023-09-07T09:33:05;93817.97;;;23.71;51.51
40592;BME280;26301;42.832;23.918;2023-09-07T09:35:31;93834.97;;;23.87;52.67
40592;BME280;26301;42.832;23.918;2023-09-07T09:38:03;93811.81;;;23.84;51.50
40592;BME280;26301;42.832;23.918;2023-09-07T09:40:33;93816.00;;;24.08;51.40
40592;BME280;26301;42.832;23.918;2023-09-07T09:43:03;93808.03;;;23.99;49.02
40592;BME280;26301;42.832;23.918;2023-09-07T09:45:32;93812.59;;;23.85;49.35
40592;BME280;26301;42.832;23.918;2023-09-07T09:47:58;93821.06;;;23.95;51.29
40592;BME280;26301;42.832;23.918;2023-09-07T09:50:31;93829.31;;;24.03;49.82
40592;BME280;26301;42.832;23.918;2023-09-07T09:53:12;93812.66;;;23.93;49.74
40592;BME280;26301;42.832;23.918;2023-09-07T09:55:49;93809.34;;;23.88;51.26
40592;BME280;26301;42.832;23.918;2023-09-07T09:58:16;93831.59;;;23.95;49.22
40592;BME280;26301;42.832;23.918;2023-09-07T10:00:48;93805.16;;;23.87;49.42
40592;BME280;26301;42.832;23.918;2023-09-07T10:03:17;93825.69;;;23.90;49.09
40592;BME280;26301;42.832;23.918;2023-09-07T10:05:45;93820.34;;;23.81;49.59
40592;BME280;26301;42.832;23.918;2023-09-07T10:08:20;93798.38;;;23.49;48.91
40592;BME280;26301;42.832;23.918;2023-09-07T10:10:51;93803.63;;;23.27;49.01
40592;BME280;26301;42.832;23.918;2023-09-07T10:13:32;93808.84;;;23.18;52.13
40592;BME280;26301;42.832;23.918;2023-09-07T10:16:06;93804.84;;;23.07;51.96
40592;BME280;26301;42.832;23.918;2023-09-07T10:18:39;93800.19;;;23.04;51.88
40592;BME280;26301;42.832;23.918;2023-09-07T10:21:08;93806.72;;;23.07;51.93
40592;BME280;26301;42.832;23.918;2023-09-07T10:23:39;93820.91;;;23.19;49.90
40592;BME280;26301;42.832;23.918;2023-09-07T10:26:09;93815.38;;;23.21;50.50
40592;BME280;26301;42.832;23.918;2023-09-07T10:28:36;93817.16;;;22.98;50.70
40592;BME280;26301;42.832;23.918;2023-09-07T10:31:05;93817.94;;;22.85;50.68
40592;BME280;26301;42.832;23.918;2023-09-07T10:33:33;93817.59;;;22.77;51.15
40592;BME280;26301;42.832;23.918;2023-09-07T10:35:59;93819.31;;;22.68;50.78
40592;BME280;26301;42.832;23.918;2023-09-07T10:38:27;93808.50;;;22.70;52.33
40592;BME280;26301;42.832;23.918;2023-09-07T10:40:57;93795.94;;;22.67;51.94
40592;BME280;26301;42.832;23.918;2023-09-07T10:43:30;93800.41;;;22.66;51.58
40592;BME280;26301;42.832;23.918;2023-09-07T10:45:57;93814.16;;;22.49;51.92
40592;BME280;26301;42.832;23.918;2023-09-07T10:48:29;93809.59;;;22.55;50.80
40592;BME280;26301;42.832;23.918;2023-09-07T10:50:55;93802.84;;;22.35;51.39
40592;BME280;26301;42.832;23.918;2023-09-07T10:53:30;93805.03;;;22.14;53.91
40592;BME280;26301;42.832;23.918;2023-09-07T10:56:02;93816.00;;;22.21;55.77
40592;BME280;26301;42.832;23.918;2023-09-07T10:58:33;93808.75;;;22.13;54.66
40592;BME280;26301;42.832;23.918;2023-09-07T11:01:00;93789.84;;;21.97;54.82
40592;BME280;26301;42.832;23.918;2023-09-07T11:03:26;93794.00;;;21.98;55.80
40592;BME280;26301;42.832;23.918;2023-09-07T11:05:55;93795.47;;;21.90;54.17
40592;BME280;26301;42.832;23.918;2023-09-07T11:08:23;93803.88;;;22.06;53.98
40592;BME280;26301;42.832;23.918;2023-09-07T11:10:51;93812.16;;;22.13;53.33
40592;BME280;26301;42.832;23.918;2023-09-07T11:13:21;93798.88;;;22.05;54.19
40592;BME280;26301;42.832;23.918;2023-09-07T11:15:54;93778.81;;;21.95;53.63
40592;BME280;26301;42.832;23.918;2023-09-07T11:18:21;93777.50;;;22.11;57.07
40592;BME280;26301;42.832;23.918;2023-09-07T11:20:47;93796.91;;;22.29;55.73
40592;BME280;26301;42.832;23.918;2023-09-07T11:23:14;93798.56;;;22.39;54.71
40592;BME280;26301;42.832;23.918;2023-09-07T11:25:40;93788.94;;;22.48;53.98
40592;BME280;26301;42.832;23.918;2023-09-07T11:28:06;93767.88;;;22.48;53.26
40592;BME280;26301;42.832;23.918;2023-09-07T11:30:33;93766.97;;;22.53;53.98
40592;BME280;26301;42.832;23.918;2023-09-07T11:33:02;93790.84;;;22.70;55.38
40592;BME280;26301;42.832;23.918;2023-09-07T11:35:28;93769.50;;;22.58;53.21
40592;BME280;26301;42.832;23.918;2023-09-07T11:37:56;93777.50;;;22.67;55.11
40592;BME280;26301;42.832;23.918;2023-09-07T11:40:25;93763.47;;;22.57;54.89
40592;BME280;26301;42.832;23.918;2023-09-07T11:42:57;93786.84;;;22.59;53.04
40592;BME280;26301;42.832;23.918;2023-09-07T11:45:22;93782.28;;;22.65;53.65
40592;BME280;26301;42.832;23.918;2023-09-07T11:47:57;93759.47;;;22.60;55.06
40592;BME280;26301;42.832;23.918;2023-09-07T11:50:23;93775.44;;;22.77;52.91
40592;BME280;26301;42.832;23.918;2023-09-07T11:52:59;93751.94;;;22.81;57.04
40592;BME280;26301;42.832;23.918;2023-09-07T11:55:36;93761.56;;;22.99;55.80
40592;BME280;26301;42.832;23.918;2023-09-07T11:58:06;93756.19;;;23.04;52.09
40592;BME280;26301;42.832;23.918;2023-09-07T12:00:32;93767.34;;;23.24;53.03
40592;BME280;26301;42.832;23.918;2023-09-07T12:03:06;93758.19;;;23.21;52.35
40592;BME280;26301;42.832;23.918;2023-09-07T12:05:35;93748.28;;;23.27;51.08
40592;BME280;26301;42.832;23.918;2023-09-07T12:08:03;93751.94;;;23.40;51.26
40592;BME280;26301;42.832;23.918;2023-09-07T12:10:34;93755.31;;;23.32;49.20
40592;BME280;26301;42.832;23.918;2023-09-07T12:13:16;93760.31;;;23.19;49.74
40592;BME280;26301;42.832;23.918;2023-09-07T12:15:45;93758.91;;;23.36;51.79
40592;BME280;26301;42.832;23.918;2023-09-07T12:18:13;93743.53;;;23.29;49.24
40592;BME280;26301;42.832;23.918;2023-09-07T12:20:40;93740.13;;;23.37;49.40
40592;BME280;26301;42.832;23.918;2023-09-07T12:23:09;93747.56;;;23.58;50.58
40592;BME280;26301;42.832;23.918;2023-09-07T12:25:35;93732.94;;;23.51;48.31
40592;BME280;26301;42.832;23.918;2023-09-07T12:28:02;93745.47;;;23.68;48.79
40592;BME280;26301;42.832;23.918;2023-09-07T12:30:28;93746.22;;;23.91;50.48
40592;BME280;26301;42.832;23.918;2023-09-07T12:32:56;93733.38;;;23.99;46.55
40592;BME280;26301;42.832;23.918;2023-09-07T12:35:22;93715.81;;;23.94;46.77
40592;BME280;26301;42.832;23.918;2023-09-07T12:37:52;93727.41;;;24.24;47.64
40592;BME280;26301;42.832;23.918;2023-09-07T12:40:18;93730.25;;;24.36;46.33
40592;BME280;26301;42.832;23.918;2023-09-07T12:42:47;93728.69;;;24.35;47.14
40592;BME280;26301;42.832;23.918;2023-09-07T12:45:13;93713.00;;;24.30;48.47
40592;BME280;26301;42.832;23.918;2023-09-07T12:47:42;93714.25;;;24.33;47.46
40592;BME280;26301;42.832;23.918;2023-09-07T12:50:11;93721.59;;;24.45;46.55
40592;BME280;26301;42.832;23.918;2023-09-07T12:52:40;93714.94;;;24.47;45.17
40592;BME280;26301;42.832;23.918;2023-09-07T12:55:12;93736.41;;;24.63;47.82
40592;BME280;26301;42.832;23.918;2023-09-07T12:57:41;93730.81;;;24.64;46.50
40592;BME280;26301;42.832;23.918;2023-09-07T13:00:12;93734.53;;;24.63;45.89
40592;BME280;26301;42.832;23.918;2023-09-07T13:02:38;93717.28;;;24.57;47.42
40592;BME280;26301;42.832;23.918;2023-09-07T13:05:04;93739.06;;;24.72;46.94
40592;BME280;26301;42.832;23.918;2023-09-07T13:07:31;93740.91;;;24.62;44.69